createdAt,value
2022-11-05T00:01:13.523Z,5.88
2022-11-05T00:06:34.972Z,4.72
2022-11-05T00:11:56.659Z,4.90
2022-11-05T00:17:01.770Z,5.88
2022-11-05T00:22:22.760Z,6.60
2022-11-05T00:27:26.419Z,4.25
2022-11-05T00:32:32.934Z,4.28
2022-11-05T00:37:36.781Z,5.25
2022-11-05T00:43:01.406Z,3.80
2022-11-05T00:48:25.277Z,5.60
2022-11-05T00:53:29.028Z,5.28
2022-11-05T00:58:32.711Z,4.78
2022-11-05T01:03:40.783Z,6.80
2022-11-05T01:08:47.174Z,3.80
2022-11-05T01:13:50.770Z,4.68
2022-11-05T01:18:55.762Z,5.72
2022-11-05T01:23:59.508Z,5.00
2022-11-05T01:29:03.183Z,4.00
2022-11-05T01:34:08.235Z,4.88
2022-11-05T01:39:11.871Z,4.43
2022-11-05T01:44:59.251Z,3.88
2022-11-05T01:55:24.504Z,5.00
2022-11-05T02:00:29.129Z,3.72
2022-11-05T02:05:35.388Z,6.18
2022-11-05T02:10:39.345Z,2.80
2022-11-05T02:16:04.091Z,5.78
2022-11-05T02:22:13.386Z,4.03
2022-11-05T02:27:40.158Z,4.38
2022-11-05T02:33:12.023Z,3.07
2022-11-05T02:38:38.245Z,4.25
2022-11-05T02:43:59.122Z,5.00
2022-11-05T02:49:20.090Z,3.92
2022-11-05T02:54:30.791Z,2.95
2022-11-05T02:59:34.398Z,5.72
2022-11-05T03:04:39.600Z,3.58
2022-11-05T03:10:19.919Z,3.92
2022-11-05T03:15:44.179Z,3.22
2022-11-05T03:21:00.255Z,5.32
2022-11-05T03:26:11.354Z,4.78
2022-11-05T03:31:18.341Z,2.58
2022-11-05T03:36:29.856Z,3.80
2022-11-05T03:41:35.479Z,3.15
2022-11-05T03:46:44.361Z,3.53
2022-11-05T03:51:56.879Z,4.93
2022-11-05T03:57:08.275Z,3.45
2022-11-05T04:02:13.587Z,3.97
2022-11-05T04:07:36.614Z,4.15
2022-11-05T04:12:57.768Z,4.15
2022-11-05T04:18:01.583Z,3.88
2022-11-05T04:23:25.938Z,4.70
2022-11-05T04:28:49.480Z,2.97
2022-11-05T04:33:53.029Z,4.25
2022-11-05T04:38:58.068Z,4.15
2022-11-05T04:44:02.434Z,2.70
2022-11-05T04:49:05.949Z,3.65
2022-11-05T04:54:10.923Z,2.90
2022-11-05T04:59:14.586Z,4.05
2022-11-05T05:04:18.274Z,3.88
2022-11-05T05:09:23.322Z,3.90
2022-11-05T05:14:27.072Z,3.90
2022-11-05T05:19:50.958Z,3.85
2022-11-05T05:24:56.742Z,4.72
2022-11-05T05:30:01.187Z,4.00
2022-11-05T05:35:05.251Z,3.35
2022-11-05T05:40:12.935Z,2.10
2022-11-05T05:50:19.848Z,2.58
2022-11-05T05:55:30.267Z,3.28
2022-11-05T06:00:34.195Z,3.65
2022-11-05T06:05:37.758Z,4.38
2022-11-05T06:10:42.872Z,3.67
2022-11-05T06:15:46.536Z,2.75
2022-11-05T06:20:50.077Z,6.13
2022-11-05T06:25:55.144Z,4.53
2022-11-05T06:30:59.243Z,4.60
2022-11-05T06:36:04.462Z,2.65
2022-11-05T06:41:10.725Z,2.65
2022-11-05T06:46:14.726Z,3.35
2022-11-05T06:51:18.367Z,3.75
2022-11-05T06:56:23.265Z,4.07
2022-11-05T07:01:26.915Z,3.47
2022-11-05T07:06:35.795Z,3.70
2022-11-05T07:11:42.046Z,2.80
2022-11-05T07:16:45.860Z,2.92
2022-11-05T07:21:50.915Z,4.80
2022-11-05T07:26:55.955Z,2.97
2022-11-05T07:31:59.604Z,2.65
2022-11-05T07:37:03.234Z,4.90
2022-11-05T07:42:08.396Z,4.20
2022-11-05T07:47:12.273Z,3.58
2022-11-05T07:52:16.093Z,2.65
2022-11-05T07:57:21.017Z,7.07
2022-11-05T08:02:24.805Z,4.45
2022-11-05T08:07:29.608Z,7.95
2022-11-05T08:12:35.049Z,9.02
2022-11-05T08:17:38.523Z,5.57
2022-11-05T08:22:44.682Z,6.00
2022-11-05T08:27:51.177Z,6.65
2022-11-05T08:32:59.561Z,5.88
2022-11-05T08:38:07.024Z,7.38
2022-11-05T08:43:15.606Z,8.40
2022-11-05T08:48:20.600Z,10.98
2022-11-05T08:53:24.093Z,9.95
2022-11-05T08:58:29.114Z,8.68
2022-11-05T09:03:32.721Z,13.98
2022-11-05T09:08:36.315Z,10.52
2022-11-05T09:13:41.352Z,9.32
2022-11-05T09:18:44.975Z,10.02
2022-11-05T09:23:49.210Z,11.32
2022-11-05T09:28:54.800Z,6.95
2022-11-05T09:33:58.278Z,8.13
2022-11-05T09:39:01.924Z,9.40
2022-11-05T09:44:14.873Z,9.50
2022-11-05T09:49:27.939Z,7.10
2022-11-05T09:54:33.327Z,9.68
2022-11-05T09:59:46.588Z,9.25
2022-11-05T10:04:56.571Z,9.55
2022-11-05T10:10:07.480Z,7.97
2022-11-05T10:15:19.766Z,7.95
2022-11-05T10:20:35.504Z,6.53
2022-11-05T10:25:43.878Z,8.20
2022-11-05T10:30:53.487Z,7.40
2022-11-05T10:36:05.765Z,7.80
2022-11-05T10:41:39.913Z,6.13
2022-11-05T10:46:57.277Z,7.38
2022-11-05T10:52:24.112Z,6.70
2022-11-05T10:57:36.937Z,7.10
2022-11-05T11:02:43.090Z,6.80
2022-11-05T11:08:01.692Z,5.70
2022-11-05T11:13:05.322Z,7.07
2022-11-05T11:18:37.392Z,5.22
2022-11-05T11:23:45.673Z,4.50
2022-11-05T11:28:57.232Z,5.30
2022-11-05T11:34:06.466Z,4.38
2022-11-05T11:39:20.834Z,5.05
2022-11-05T11:44:31.062Z,5.93
2022-11-05T11:49:47.846Z,5.43
2022-11-05T11:54:53.183Z,3.97
2022-11-05T12:00:14.635Z,4.70
2022-11-05T12:05:34.652Z,3.83
2022-11-05T12:10:59.287Z,6.25
2022-11-05T12:16:16.921Z,5.80
2022-11-05T12:27:14.942Z,7.90
2022-11-05T12:32:54.741Z,5.15
2022-11-05T12:38:12.431Z,6.32
2022-11-05T12:43:31.214Z,5.45
2022-11-05T12:49:12.156Z,5.85
2022-11-05T12:54:40.596Z,5.78
2022-11-05T12:59:55.080Z,4.55
2022-11-05T13:05:07.845Z,4.45
2022-11-05T13:10:28.895Z,5.55
2022-11-05T13:15:40.268Z,4.80
2022-11-05T13:20:52.093Z,4.68
2022-11-05T13:26:15.665Z,4.18
2022-11-05T13:31:34.041Z,5.03
2022-11-05T13:37:12.626Z,5.13
2022-11-05T13:43:12.120Z,4.22
2022-11-05T14:29:26.071Z,3.35
2022-11-05T14:34:49.668Z,3.85
2022-11-05T14:39:55.841Z,3.95
2022-11-05T14:45:28.976Z,4.03
2022-11-05T14:50:38.953Z,3.72
2022-11-05T14:55:46.424Z,5.95
2022-11-05T15:00:53.198Z,4.88
2022-11-05T15:06:22.269Z,4.23
2022-11-05T15:11:34.892Z,3.70
2022-11-05T15:16:50.667Z,4.13
2022-11-05T15:21:59.562Z,4.35
2022-11-05T15:27:21.262Z,3.47
2022-11-05T15:32:28.108Z,4.03
2022-11-05T15:37:34.057Z,3.53
2022-11-05T15:42:41.277Z,3.58
2022-11-05T15:47:48.576Z,4.10
2022-11-05T15:52:55.475Z,3.05
2022-11-05T15:58:07.471Z,4.35
2022-11-05T16:03:27.035Z,5.63
2022-11-05T16:08:32.060Z,9.52
2022-11-05T16:13:38.600Z,11.35
2022-11-05T16:18:45.872Z,16.17
2022-11-05T16:23:57.540Z,15.17
2022-11-05T16:29:04.419Z,14.07
2022-11-05T16:34:27.735Z,26.53
2022-11-05T16:39:31.591Z,23.42
2022-11-05T16:44:35.178Z,24.77
2022-11-05T16:49:40.105Z,22.60
2022-11-05T16:54:44.214Z,20.25
2022-11-05T16:59:47.924Z,22.23
2022-11-05T17:04:53.086Z,17.83
2022-11-05T17:09:58.025Z,16.27
2022-11-05T17:15:01.804Z,16.88
2022-11-05T17:20:13.898Z,17.05
2022-11-05T17:25:17.875Z,20.73
2022-11-05T17:30:21.732Z,23.10
2022-11-05T17:35:27.324Z,16.60
2022-11-05T17:40:31.016Z,15.65
2022-11-05T17:45:34.914Z,16.83
2022-11-05T17:50:44.008Z,16.63
2022-11-05T17:55:49.134Z,16.00
2022-11-05T18:00:52.704Z,16.80
2022-11-05T18:06:03.292Z,10.30
2022-11-05T18:11:07.272Z,13.40
2022-11-05T18:16:11.395Z,10.90
2022-11-05T18:21:16.593Z,10.50
2022-11-05T18:26:20.838Z,13.80
2022-11-05T18:31:24.452Z,10.25
2022-11-05T18:36:33.307Z,10.20
2022-11-05T18:41:36.970Z,11.63
2022-11-05T18:52:07.478Z,10.68
2022-11-05T18:57:11.146Z,11.60
2022-11-05T19:02:15.935Z,9.13
2022-11-05T19:07:23.844Z,10.70
2022-11-05T19:17:30.811Z,8.63
2022-11-05T19:22:36.104Z,9.85
2022-11-05T19:27:39.694Z,9.23
2022-11-05T19:32:43.144Z,7.30
2022-11-05T19:37:49.699Z,9.32
2022-11-05T19:42:53.379Z,7.75
2022-11-05T19:47:57.303Z,9.20
2022-11-05T19:53:03.458Z,7.90
2022-11-05T19:58:07.157Z,6.90
2022-11-05T20:03:12.732Z,7.93
2022-11-05T20:08:17.769Z,7.07
2022-11-05T20:13:21.371Z,5.95
2022-11-05T20:18:25.771Z,7.38
2022-11-05T20:23:31.400Z,6.05
2022-11-05T20:28:36.780Z,5.03
2022-11-05T20:33:41.168Z,5.90
2022-11-05T20:38:50.375Z,7.30
2022-11-05T20:43:54.030Z,6.47
2022-11-05T20:48:57.600Z,5.82
2022-11-05T20:54:03.884Z,9.15
2022-11-05T20:59:07.534Z,6.68
2022-11-05T21:04:11.215Z,6.53
2022-11-05T21:09:16.270Z,5.88
2022-11-05T21:14:19.897Z,5.97
2022-11-05T21:19:24.108Z,6.70
2022-11-05T21:24:29.130Z,7.57
2022-11-05T21:29:32.618Z,6.18
2022-11-05T21:34:36.160Z,6.70
2022-11-05T21:39:41.119Z,5.70
2022-11-05T21:44:44.725Z,8.00
2022-11-05T21:49:48.345Z,6.45
2022-11-05T21:55:10.770Z,5.75
2022-11-05T22:00:15.344Z,6.47
2022-11-05T22:05:19.190Z,5.40
2022-11-05T22:10:24.770Z,5.40
2022-11-05T22:15:28.358Z,5.18
2022-11-05T22:20:32.284Z,7.82
2022-11-05T22:25:38.477Z,9.05
2022-11-05T22:30:42.126Z,9.23
2022-11-05T22:35:45.582Z,9.70
2022-11-05T22:40:50.509Z,10.65
2022-11-05T22:45:54.057Z,9.52
2022-11-05T22:50:57.494Z,12.48
2022-11-05T22:56:04.691Z,9.65
2022-11-05T23:01:11.797Z,11.03
2022-11-05T23:06:33.269Z,7.33
2022-11-05T23:11:44.150Z,7.53
2022-11-05T23:17:05.516Z,9.13
2022-11-05T23:22:31.597Z,9.25
2022-11-05T23:27:39.794Z,9.05
2022-11-05T23:32:43.483Z,9.25
2022-11-05T23:38:19.166Z,7.13
2022-11-05T23:43:42.021Z,9.25
2022-11-05T23:48:45.456Z,10.40
2022-11-05T23:53:49.058Z,8.73
2022-11-05T23:58:54.093Z,8.77
